Archival Weather

Snohomish County (Paine Fld)

Everett, Washington (KPAE)

Report from: Tuesday, May 21, 2024 12:53 AM PDT
Current time: Saturday, June 22, 2024 3:40 AM PDT

Current weather – Weather history – Daily summaries
Weather forecast

Temperature10.6°C (51.1°F)
Dew point7.2°C (45.0°F)
Winds 6 kts (3.1 m/s, 6.9 mph) North (360°)
Visibility10 mi. (16.1 km)
Clouds Ceiling: Overcast 7,500 ft. (2,286 m)
Altimeter30.20 in.Hg (1023 mB)
Relative humidity79 %
Density altitude-699 ft. (-213 m)
Sea-level pressure102.3 kPa (1023 mB, 30.20 in.Hg)
Max temp last 24 hours17.8°C (64.0°F)
Min temp last 24 hours8.3°C (46.9°F)
Remarks Fully automated report
Automated weather observing station with precipitation discriminator
Flight conditions Visual Meteorological Conditions
Raw dataKPAE 210753Z AUTO 36006KT 10SM OVC075 11/07 A3020 RMK AO2 SLP227 T01060072 401780083
An error has occurred. This application may no longer respond until reloaded. Reload 🗙